sensor_id;sensor_type;location;lat;lon;timestamp;temperature;humidity
11047;DHT22;5576;50.008;10.596;2022-08-01T00:00:27;20.00;99.90
11047;DHT22;5576;50.008;10.596;2022-08-01T00:02:53;20.60;99.90
11047;DHT22;5576;50.008;10.596;2022-08-01T00:05:19;19.80;99.90
11047;DHT22;5576;50.008;10.596;2022-08-01T00:07:45;19.80;99.90
11047;DHT22;5576;50.008;10.596;2022-08-01T00:10:13;19.50;99.90
11047;DHT22;5576;50.008;10.596;2022-08-01T00:12:40;19.60;99.90
11047;DHT22;5576;50.008;10.596;2022-08-01T00:15:07;19.40;99.90
11047;DHT22;5576;50.008;10.596;2022-08-01T00:17:33;19.20;99.90
11047;DHT22;5576;50.008;10.596;2022-08-01T00:19:59;19.10;99.90
11047;DHT22;5576;50.008;10.596;2022-08-01T00:22:25;19.10;99.90
11047;DHT22;5576;50.008;10.596;2022-08-01T00:24:51;15.30;99.90
11047;DHT22;5576;50.008;10.596;2022-08-01T00:27:16;19.10;99.90
11047;DHT22;5576;50.008;10.596;2022-08-01T00:29:42;22.40;99.90
11047;DHT22;5576;50.008;10.596;2022-08-01T00:32:08;19.00;99.90
11047;DHT22;5576;50.008;10.596;2022-08-01T00:34:34;18.90;99.90
11047;DHT22;5576;50.008;10.596;2022-08-01T00:36:59;18.80;99.90
11047;DHT22;5576;50.008;10.596;2022-08-01T00:39:25;18.70;99.90
11047;DHT22;5576;50.008;10.596;2022-08-01T00:41:51;18.50;99.90
11047;DHT22;5576;50.008;10.596;2022-08-01T00:44:16;18.60;99.90
11047;DHT22;5576;50.008;10.596;2022-08-01T00:46:42;16.80;99.90
11047;DHT22;5576;50.008;10.596;2022-08-01T00:49:08;18.70;99.90
11047;DHT22;5576;50.008;10.596;2022-08-01T00:51:34;20.50;99.90
11047;DHT22;5576;50.008;10.596;2022-08-01T00:54:00;21.70;99.90
11047;DHT22;5576;50.008;10.596;2022-08-01T00:56:27;23.00;99.90
11047;DHT22;5576;50.008;10.596;2022-08-01T00:58:55;18.90;99.90
11047;DHT22;5576;50.008;10.596;2022-08-01T01:03:49;18.90;99.90
11047;DHT22;5576;50.008;10.596;2022-08-01T01:06:25;18.80;99.90
11047;DHT22;5576;50.008;10.596;2022-08-01T01:15:07;18.60;99.90
11047;DHT22;5576;50.008;10.596;2022-08-01T01:17:55;18.60;99.90
11047;DHT22;5576;50.008;10.596;2022-08-01T01:20:25;18.60;99.90
11047;DHT22;5576;50.008;10.596;2022-08-01T01:22:57;18.60;99.90
11047;DHT22;5576;50.008;10.596;2022-08-01T01:25:51;18.50;99.90
11047;DHT22;5576;50.008;10.596;2022-08-01T01:29:27;18.50;99.90
11047;DHT22;5576;50.008;10.596;2022-08-01T01:31:17;18.30;99.90
11047;DHT22;5576;50.008;10.596;2022-08-01T01:33:44;18.30;99.90
11047;DHT22;5576;50.008;10.596;2022-08-01T01:36:11;18.30;99.90
11047;DHT22;5576;50.008;10.596;2022-08-01T01:38:42;18.30;99.90
11047;DHT22;5576;50.008;10.596;2022-08-01T01:41:10;22.60;99.90
11047;DHT22;5576;50.008;10.596;2022-08-01T01:43:37;18.20;99.90
11047;DHT22;5576;50.008;10.596;2022-08-01T01:46:04;17.90;99.90
11047;DHT22;5576;50.008;10.596;2022-08-01T01:48:31;20.60;99.90
11047;DHT22;5576;50.008;10.596;2022-08-01T01:50:59;17.90;99.90
11047;DHT22;5576;50.008;10.596;2022-08-01T01:53:28;17.80;99.90
11047;DHT22;5576;50.008;10.596;2022-08-01T01:55:55;17.90;99.90
11047;DHT22;5576;50.008;10.596;2022-08-01T01:58:23;17.80;99.90
11047;DHT22;5576;50.008;10.596;2022-08-01T02:00:52;17.70;99.90
11047;DHT22;5576;50.008;10.596;2022-08-01T02:03:18;17.70;99.90
11047;DHT22;5576;50.008;10.596;2022-08-01T02:05:45;17.80;99.90
11047;DHT22;5576;50.008;10.596;2022-08-01T02:08:14;17.70;99.90
11047;DHT22;5576;50.008;10.596;2022-08-01T02:10:41;17.70;99.90
11047;DHT22;5576;50.008;10.596;2022-08-01T02:13:28;17.50;99.90
11047;DHT22;5576;50.008;10.596;2022-08-01T02:15:54;17.50;99.90
11047;DHT22;5576;50.008;10.596;2022-08-01T02:18:20;17.50;99.90
11047;DHT22;5576;50.008;10.596;2022-08-01T02:20:47;17.60;99.90
11047;DHT22;5576;50.008;10.596;2022-08-01T02:23:15;17.50;99.90
11047;DHT22;5576;50.008;10.596;2022-08-01T02:25:49;14.30;99.90
11047;DHT22;5576;50.008;10.596;2022-08-01T02:28:19;17.40;99.90
11047;DHT22;5576;50.008;10.596;2022-08-01T02:30:50;17.30;99.90
11047;DHT22;5576;50.008;10.596;2022-08-01T02:33:19;17.40;99.90
11047;DHT22;5576;50.008;10.596;2022-08-01T02:35:50;16.30;99.90
11047;DHT22;5576;50.008;10.596;2022-08-01T02:38:17;17.40;99.90
11047;DHT22;5576;50.008;10.596;2022-08-01T02:40:46;17.50;99.90
11047;DHT22;5576;50.008;10.596;2022-08-01T02:43:14;17.50;99.90
11047;DHT22;5576;50.008;10.596;2022-08-01T02:45:43;17.60;99.90
11047;DHT22;5576;50.008;10.596;2022-08-01T02:48:13;17.50;99.90
11047;DHT22;5576;50.008;10.596;2022-08-01T02:50:42;17.40;99.90
11047;DHT22;5576;50.008;10.596;2022-08-01T02:53:11;17.50;99.90
11047;DHT22;5576;50.008;10.596;2022-08-01T02:55:39;17.60;99.90
11047;DHT22;5576;50.008;10.596;2022-08-01T02:58:07;17.50;99.90
11047;DHT22;5576;50.008;10.596;2022-08-01T03:00:35;17.30;99.90
11047;DHT22;5576;50.008;10.596;2022-08-01T03:03:03;17.30;99.90
11047;DHT22;5576;50.008;10.596;2022-08-01T03:05:31;17.30;99.90
11047;DHT22;5576;50.008;10.596;2022-08-01T03:07:58;17.20;99.90
11047;DHT22;5576;50.008;10.596;2022-08-01T03:10:27;17.20;99.90
11047;DHT22;5576;50.008;10.596;2022-08-01T03:12:54;17.20;99.90
11047;DHT22;5576;50.008;10.596;2022-08-01T03:15:21;17.20;99.90
11047;DHT22;5576;50.008;10.596;2022-08-01T03:17:49;17.30;99.90
11047;DHT22;5576;50.008;10.596;2022-08-01T03:20:18;17.20;99.90
11047;DHT22;5576;50.008;10.596;2022-08-01T03:22:46;18.10;99.90
11047;DHT22;5576;50.008;10.596;2022-08-01T03:25:14;17.20;99.90
11047;DHT22;5576;50.008;10.596;2022-08-01T03:27:42;17.10;99.90
11047;DHT22;5576;50.008;10.596;2022-08-01T03:30:09;17.10;99.90
11047;DHT22;5576;50.008;10.596;2022-08-01T03:32:36;17.10;99.90
11047;DHT22;5576;50.008;10.596;2022-08-01T03:35:02;14.60;99.90
11047;DHT22;5576;50.008;10.596;2022-08-01T03:37:33;17.30;99.90
11047;DHT22;5576;50.008;10.596;2022-08-01T03:40:09;17.20;99.90
11047;DHT22;5576;50.008;10.596;2022-08-01T03:42:41;17.10;99.90
11047;DHT22;5576;50.008;10.596;2022-08-01T03:45:11;17.20;99.90
11047;DHT22;5576;50.008;10.596;2022-08-01T03:47:43;17.20;99.90
11047;DHT22;5576;50.008;10.596;2022-08-01T03:50:12;17.90;99.90
11047;DHT22;5576;50.008;10.596;2022-08-01T03:52:42;17.20;99.90
11047;DHT22;5576;50.008;10.596;2022-08-01T03:55:11;17.30;99.90
11047;DHT22;5576;50.008;10.596;2022-08-01T03:57:38;17.20;99.90
11047;DHT22;5576;50.008;10.596;2022-08-01T04:00:06;21.80;99.90
11047;DHT22;5576;50.008;10.596;2022-08-01T04:02:39;17.30;99.90
11047;DHT22;5576;50.008;10.596;2022-08-01T06:47:44;20.80;99.90
11047;DHT22;5576;50.008;10.596;2022-08-01T07:02:22;21.10;99.90
11047;DHT22;5576;50.008;10.596;2022-08-01T07:07:15;21.20;99.90
11047;DHT22;5576;50.008;10.596;2022-08-01T07:49:24;22.20;99.90
11047;DHT22;5576;50.008;10.596;2022-08-01T07:56:41;22.20;99.90
11047;DHT22;5576;50.008;10.596;2022-08-01T08:03:59;22.30;99.90
11047;DHT22;5576;50.008;10.596;2022-08-01T08:06:25;22.30;99.90
11047;DHT22;5576;50.008;10.596;2022-08-01T08:08:51;22.30;99.90
11047;DHT22;5576;50.008;10.596;2022-08-01T08:18:37;22.70;99.90
11047;DHT22;5576;50.008;10.596;2022-08-01T08:23:29;22.50;99.90
11047;DHT22;5576;50.008;10.596;2022-08-01T08:28:49;22.50;99.90
11047;DHT22;5576;50.008;10.596;2022-08-01T08:31:14;22.60;99.90
11047;DHT22;5576;50.008;10.596;2022-08-01T08:38:32;23.10;99.90
11047;DHT22;5576;50.008;10.596;2022-08-01T08:40:59;23.20;99.90
11047;DHT22;5576;50.008;10.596;2022-08-01T08:43:25;23.10;99.90
11047;DHT22;5576;50.008;10.596;2022-08-01T08:48:18;23.00;99.90
11047;DHT22;5576;50.008;10.596;2022-08-01T08:50:45;22.90;99.90
11047;DHT22;5576;50.008;10.596;2022-08-01T08:53:13;22.80;99.90
11047;DHT22;5576;50.008;10.596;2022-08-01T08:55:41;22.80;99.90
11047;DHT22;5576;50.008;10.596;2022-08-01T08:58:12;22.70;99.90
11047;DHT22;5576;50.008;10.596;2022-08-01T09:10:26;22.70;99.90
11047;DHT22;5576;50.008;10.596;2022-08-01T09:18:44;22.90;99.90
11047;DHT22;5576;50.008;10.596;2022-08-01T09:21:09;22.80;99.90
11047;DHT22;5576;50.008;10.596;2022-08-01T09:23:37;22.80;99.90
11047;DHT22;5576;50.008;10.596;2022-08-01T09:28:52;22.70;99.90
11047;DHT22;5576;50.008;10.596;2022-08-01T09:31:18;22.70;99.90
11047;DHT22;5576;50.008;10.596;2022-08-01T09:34:03;22.60;99.90
11047;DHT22;5576;50.008;10.596;2022-08-01T09:36:51;22.70;99.90
11047;DHT22;5576;50.008;10.596;2022-08-01T09:39:18;21.40;99.90
11047;DHT22;5576;50.008;10.596;2022-08-01T09:41:45;22.70;99.90
11047;DHT22;5576;50.008;10.596;2022-08-01T09:44:11;22.70;99.90
11047;DHT22;5576;50.008;10.596;2022-08-01T09:46:49;22.80;99.90
11047;DHT22;5576;50.008;10.596;2022-08-01T09:49:15;22.90;99.90
11047;DHT22;5576;50.008;10.596;2022-08-01T09:51:51;23.00;99.90
11047;DHT22;5576;50.008;10.596;2022-08-01T09:54:28;23.20;99.90
11047;DHT22;5576;50.008;10.596;2022-08-01T09:56:54;23.30;99.90
11047;DHT22;5576;50.008;10.596;2022-08-01T09:59:37;23.40;99.90
11047;DHT22;5576;50.008;10.596;2022-08-01T10:02:05;23.50;99.90
11047;DHT22;5576;50.008;10.596;2022-08-01T10:04:31;23.60;99.90
11047;DHT22;5576;50.008;10.596;2022-08-01T10:07:06;23.60;99.90
11047;DHT22;5576;50.008;10.596;2022-08-01T10:09:35;23.80;99.90
11047;DHT22;5576;50.008;10.596;2022-08-01T10:12:02;23.90;99.90
11047;DHT22;5576;50.008;10.596;2022-08-01T10:14:29;24.10;99.90
11047;DHT22;5576;50.008;10.596;2022-08-01T10:16:57;24.30;99.90
11047;DHT22;5576;50.008;10.596;2022-08-01T10:19:25;24.50;99.90
11047;DHT22;5576;50.008;10.596;2022-08-01T10:21:52;24.50;99.90
11047;DHT22;5576;50.008;10.596;2022-08-01T10:24:20;24.50;99.90
11047;DHT22;5576;50.008;10.596;2022-08-01T10:26:48;24.50;99.90
11047;DHT22;5576;50.008;10.596;2022-08-01T10:29:18;24.50;99.90
11047;DHT22;5576;50.008;10.596;2022-08-01T10:31:46;24.60;99.90
11047;DHT22;5576;50.008;10.596;2022-08-01T10:34:13;24.60;99.90
11047;DHT22;5576;50.008;10.596;2022-08-01T10:36:42;24.60;99.90
11047;DHT22;5576;50.008;10.596;2022-08-01T10:39:10;24.60;99.90
11047;DHT22;5576;50.008;10.596;2022-08-01T10:41:38;24.70;99.90
11047;DHT22;5576;50.008;10.596;2022-08-01T10:44:06;24.70;99.90
11047;DHT22;5576;50.008;10.596;2022-08-01T10:46:36;24.70;99.90
11047;DHT22;5576;50.008;10.596;2022-08-01T10:49:13;24.70;99.90
11047;DHT22;5576;50.008;10.596;2022-08-01T10:51:39;24.60;99.90
11047;DHT22;5576;50.008;10.596;2022-08-01T10:54:08;24.70;99.90
11047;DHT22;5576;50.008;10.596;2022-08-01T10:56:51;24.80;99.90
11047;DHT22;5576;50.008;10.596;2022-08-01T10:59:23;25.10;99.90
11047;DHT22;5576;50.008;10.596;2022-08-01T11:01:58;25.30;99.90
11047;DHT22;5576;50.008;10.596;2022-08-01T11:04:45;25.30;99.90
11047;DHT22;5576;50.008;10.596;2022-08-01T11:07:17;25.30;99.90
11047;DHT22;5576;50.008;10.596;2022-08-01T11:09:46;25.60;99.90
11047;DHT22;5576;50.008;10.596;2022-08-01T11:12:14;25.70;99.90
11047;DHT22;5576;50.008;10.596;2022-08-01T11:17:36;25.70;99.90
11047;DHT22;5576;50.008;10.596;2022-08-01T11:30:48;25.40;99.90
11047;DHT22;5576;50.008;10.596;2022-08-01T11:33:16;25.50;99.90
11047;DHT22;5576;50.008;10.596;2022-08-01T11:38:39;25.30;99.90
11047;DHT22;5576;50.008;10.596;2022-08-01T11:41:25;25.10;99.90
11047;DHT22;5576;50.008;10.596;2022-08-01T11:44:01;25.10;99.90
11047;DHT22;5576;50.008;10.596;2022-08-01T11:54:33;26.30;99.90
11047;DHT22;5576;50.008;10.596;2022-08-01T11:57:02;25.10;99.90
11047;DHT22;5576;50.008;10.596;2022-08-01T11:59:28;25.10;99.90
11047;DHT22;5576;50.008;10.596;2022-08-01T12:02:00;25.00;99.90
11047;DHT22;5576;50.008;10.596;2022-08-01T12:04:45;25.10;99.90
11047;DHT22;5576;50.008;10.596;2022-08-01T12:07:13;26.10;99.90
11047;DHT22;5576;50.008;10.596;2022-08-01T12:09:38;25.00;99.90
11047;DHT22;5576;50.008;10.596;2022-08-01T12:12:04;25.00;99.90
11047;DHT22;5576;50.008;10.596;2022-08-01T12:14:30;23.60;99.90
11047;DHT22;5576;50.008;10.596;2022-08-01T12:16:56;24.90;99.90
11047;DHT22;5576;50.008;10.596;2022-08-01T12:19:23;24.90;99.90
11047;DHT22;5576;50.008;10.596;2022-08-01T12:22:06;25.30;99.90
11047;DHT22;5576;50.008;10.596;2022-08-01T12:24:34;25.80;99.90
11047;DHT22;5576;50.008;10.596;2022-08-01T12:26:59;26.10;99.90
11047;DHT22;5576;50.008;10.596;2022-08-01T12:29:42;26.20;99.90
11047;DHT22;5576;50.008;10.596;2022-08-01T12:32:31;26.70;99.90
11047;DHT22;5576;50.008;10.596;2022-08-01T12:35:11;27.10;99.90
11047;DHT22;5576;50.008;10.596;2022-08-01T12:37:41;27.30;99.90
11047;DHT22;5576;50.008;10.596;2022-08-01T12:42:42;27.60;99.90
11047;DHT22;5576;50.008;10.596;2022-08-01T12:45:09;27.90;99.90
11047;DHT22;5576;50.008;10.596;2022-08-01T12:47:37;27.80;99.90
11047;DHT22;5576;50.008;10.596;2022-08-01T12:50:06;27.30;99.90
11047;DHT22;5576;50.008;10.596;2022-08-01T12:52:33;27.20;99.90
11047;DHT22;5576;50.008;10.596;2022-08-01T12:55:04;27.00;99.90
11047;DHT22;5576;50.008;10.596;2022-08-01T12:57:31;26.70;99.90
11047;DHT22;5576;50.008;10.596;2022-08-01T13:00:16;26.40;99.90
11047;DHT22;5576;50.008;10.596;2022-08-01T13:02:44;26.40;99.90
11047;DHT22;5576;50.008;10.596;2022-08-01T13:05:11;28.20;99.90
11047;DHT22;5576;50.008;10.596;2022-08-01T13:07:43;26.50;99.90
11047;DHT22;5576;50.008;10.596;2022-08-01T13:10:11;26.30;99.90
11047;DHT22;5576;50.008;10.596;2022-08-01T13:12:38;26.30;99.90
11047;DHT22;5576;50.008;10.596;2022-08-01T13:15:26;26.40;99.90
11047;DHT22;5576;50.008;10.596;2022-08-01T13:17:53;26.30;99.90
11047;DHT22;5576;50.008;10.596;2022-08-01T13:22:50;26.30;99.90
11047;DHT22;5576;50.008;10.596;2022-08-01T13:25:17;26.40;99.90
11047;DHT22;5576;50.008;10.596;2022-08-01T13:27:44;26.40;99.90
11047;DHT22;5576;50.008;10.596;2022-08-01T13:30:17;26.40;99.90
11047;DHT22;5576;50.008;10.596;2022-08-01T13:32:44;27.10;99.90
11047;DHT22;5576;50.008;10.596;2022-08-01T13:35:22;26.40;99.90
11047;DHT22;5576;50.008;10.596;2022-08-01T13:37:48;26.80;99.90
11047;DHT22;5576;50.008;10.596;2022-08-01T13:40:24;27.60;99.90
11047;DHT22;5576;50.008;10.596;2022-08-01T13:42:50;27.70;99.90
11047;DHT22;5576;50.008;10.596;2022-08-01T13:45:16;28.00;99.90
11047;DHT22;5576;50.008;10.596;2022-08-01T13:47:43;28.20;99.90
11047;DHT22;5576;50.008;10.596;2022-08-01T13:50:09;28.50;99.90
11047;DHT22;5576;50.008;10.596;2022-08-01T13:52:35;28.50;99.90
11047;DHT22;5576;50.008;10.596;2022-08-01T13:55:01;28.50;99.90
11047;DHT22;5576;50.008;10.596;2022-08-01T13:57:27;28.40;99.90
11047;DHT22;5576;50.008;10.596;2022-08-01T13:59:53;30.10;99.90
11047;DHT22;5576;50.008;10.596;2022-08-01T14:02:20;28.00;99.90
11047;DHT22;5576;50.008;10.596;2022-08-01T14:04:46;27.90;99.90
11047;DHT22;5576;50.008;10.596;2022-08-01T14:07:12;27.70;99.90
11047;DHT22;5576;50.008;10.596;2022-08-01T14:09:38;24.00;99.90
11047;DHT22;5576;50.008;10.596;2022-08-01T14:12:04;27.50;99.90
11047;DHT22;5576;50.008;10.596;2022-08-01T14:14:30;27.40;99.90
11047;DHT22;5576;50.008;10.596;2022-08-01T14:16:56;27.30;99.90
11047;DHT22;5576;50.008;10.596;2022-08-01T14:19:22;28.70;99.90
11047;DHT22;5576;50.008;10.596;2022-08-01T14:21:47;25.40;99.90
11047;DHT22;5576;50.008;10.596;2022-08-01T14:24:13;27.20;99.90
11047;DHT22;5576;50.008;10.596;2022-08-01T14:26:39;27.20;99.90
11047;DHT22;5576;50.008;10.596;2022-08-01T14:29:04;27.30;99.90
11047;DHT22;5576;50.008;10.596;2022-08-01T14:31:30;29.10;99.90
11047;DHT22;5576;50.008;10.596;2022-08-01T14:33:56;27.80;99.90
11047;DHT22;5576;50.008;10.596;2022-08-01T14:36:22;28.10;99.90
11047;DHT22;5576;50.008;10.596;2022-08-01T14:38:47;28.30;99.90
11047;DHT22;5576;50.008;10.596;2022-08-01T14:41:15;32.20;99.90
11047;DHT22;5576;50.008;10.596;2022-08-01T14:43:40;28.40;99.90
11047;DHT22;5576;50.008;10.596;2022-08-01T14:46:06;28.10;99.90
11047;DHT22;5576;50.008;10.596;2022-08-01T14:48:35;27.90;99.90
11047;DHT22;5576;50.008;10.596;2022-08-01T14:51:01;27.50;99.90
11047;DHT22;5576;50.008;10.596;2022-08-01T14:53:28;27.50;99.90
11047;DHT22;5576;50.008;10.596;2022-08-01T14:55:54;27.40;99.90
11047;DHT22;5576;50.008;10.596;2022-08-01T14:58:19;27.10;99.90
11047;DHT22;5576;50.008;10.596;2022-08-01T15:00:45;26.80;99.90
11047;DHT22;5576;50.008;10.596;2022-08-01T15:03:11;26.70;99.90
11047;DHT22;5576;50.008;10.596;2022-08-01T15:05:36;26.70;99.90
11047;DHT22;5576;50.008;10.596;2022-08-01T15:08:03;28.70;99.90
11047;DHT22;5576;50.008;10.596;2022-08-01T15:10:29;26.60;99.90
11047;DHT22;5576;50.008;10.596;2022-08-01T15:12:55;25.60;99.90
11047;DHT22;5576;50.008;10.596;2022-08-01T15:15:22;26.40;99.90
11047;DHT22;5576;50.008;10.596;2022-08-01T15:17:47;26.30;99.90
11047;DHT22;5576;50.008;10.596;2022-08-01T15:20:13;26.10;99.90
11047;DHT22;5576;50.008;10.596;2022-08-01T15:22:39;25.80;99.90
11047;DHT22;5576;50.008;10.596;2022-08-01T15:25:05;26.10;99.90
11047;DHT22;5576;50.008;10.596;2022-08-01T15:27:31;26.20;99.90
11047;DHT22;5576;50.008;10.596;2022-08-01T15:29:57;26.20;99.90
11047;DHT22;5576;50.008;10.596;2022-08-01T15:32:22;26.20;99.90
11047;DHT22;5576;50.008;10.596;2022-08-01T15:34:49;29.40;99.90
11047;DHT22;5576;50.008;10.596;2022-08-01T15:37:14;26.30;99.90
11047;DHT22;5576;50.008;10.596;2022-08-01T15:39:40;26.30;99.90
11047;DHT22;5576;50.008;10.596;2022-08-01T15:42:09;26.40;99.90
11047;DHT22;5576;50.008;10.596;2022-08-01T15:44:35;26.40;99.90
11047;DHT22;5576;50.008;10.596;2022-08-01T15:47:01;25.10;99.90
11047;DHT22;5576;50.008;10.596;2022-08-01T15:49:27;26.40;99.90
11047;DHT22;5576;50.008;10.596;2022-08-01T15:51:53;26.40;99.90
11047;DHT22;5576;50.008;10.596;2022-08-01T15:54:19;23.10;99.90
11047;DHT22;5576;50.008;10.596;2022-08-01T15:59:12;23.70;99.90
11047;DHT22;5576;50.008;10.596;2022-08-01T16:01:37;26.20;99.90
11047;DHT22;5576;50.008;10.596;2022-08-01T16:04:04;26.10;99.90
11047;DHT22;5576;50.008;10.596;2022-08-01T16:06:30;26.10;99.90
11047;DHT22;5576;50.008;10.596;2022-08-01T16:08:56;26.20;99.90
11047;DHT22;5576;50.008;10.596;2022-08-01T16:13:51;26.20;99.90
11047;DHT22;5576;50.008;10.596;2022-08-01T16:16:17;26.30;99.90
11047;DHT22;5576;50.008;10.596;2022-08-01T16:18:43;26.30;99.90
11047;DHT22;5576;50.008;10.596;2022-08-01T16:21:09;26.50;99.90
11047;DHT22;5576;50.008;10.596;2022-08-01T16:23:38;26.50;99.90
11047;DHT22;5576;50.008;10.596;2022-08-01T16:26:04;26.60;99.90
11047;DHT22;5576;50.008;10.596;2022-08-01T16:28:30;26.60;99.90
11047;DHT22;5576;50.008;10.596;2022-08-01T16:30:56;27.60;99.90
11047;DHT22;5576;50.008;10.596;2022-08-01T16:33:22;26.80;99.90
11047;DHT22;5576;50.008;10.596;2022-08-01T16:35:48;26.90;99.90
11047;DHT22;5576;50.008;10.596;2022-08-01T16:38:14;27.00;99.90
11047;DHT22;5576;50.008;10.596;2022-08-01T16:40:42;26.90;99.90
11047;DHT22;5576;50.008;10.596;2022-08-01T16:43:09;26.90;99.90
11047;DHT22;5576;50.008;10.596;2022-08-01T16:48:01;26.80;99.90
11047;DHT22;5576;50.008;10.596;2022-08-01T16:50:26;29.20;99.90
11047;DHT22;5576;50.008;10.596;2022-08-01T16:52:52;26.60;99.90
11047;DHT22;5576;50.008;10.596;2022-08-01T16:55:18;26.60;99.90
11047;DHT22;5576;50.008;10.596;2022-08-01T16:57:45;26.50;99.90
11047;DHT22;5576;50.008;10.596;2022-08-01T17:00:13;29.60;99.90
11047;DHT22;5576;50.008;10.596;2022-08-01T17:02:41;26.40;99.90
11047;DHT22;5576;50.008;10.596;2022-08-01T17:05:08;26.30;99.90
11047;DHT22;5576;50.008;10.596;2022-08-01T17:10:00;26.20;99.90
11047;DHT22;5576;50.008;10.596;2022-08-01T17:12:27;26.20;99.90
11047;DHT22;5576;50.008;10.596;2022-08-01T17:14:53;26.10;99.90
11047;DHT22;5576;50.008;10.596;2022-08-01T17:17:21;25.10;99.90
11047;DHT22;5576;50.008;10.596;2022-08-01T17:19:47;26.20;99.90
11047;DHT22;5576;50.008;10.596;2022-08-01T17:22:13;26.20;99.90
11047;DHT22;5576;50.008;10.596;2022-08-01T17:24:39;26.20;99.90
11047;DHT22;5576;50.008;10.596;2022-08-01T17:27:05;26.30;99.90
11047;DHT22;5576;50.008;10.596;2022-08-01T17:29:31;25.40;99.90
11047;DHT22;5576;50.008;10.596;2022-08-01T17:31:57;26.40;99.90
11047;DHT22;5576;50.008;10.596;2022-08-01T17:34:23;26.40;99.90
11047;DHT22;5576;50.008;10.596;2022-08-01T17:36:48;26.40;99.90
11047;DHT22;5576;50.008;10.596;2022-08-01T17:39:14;26.40;99.90
11047;DHT22;5576;50.008;10.596;2022-08-01T17:41:40;26.30;99.90
11047;DHT22;5576;50.008;10.596;2022-08-01T17:44:07;26.20;99.90
11047;DHT22;5576;50.008;10.596;2022-08-01T17:46:33;27.40;99.90
11047;DHT22;5576;50.008;10.596;2022-08-01T17:48:59;26.10;99.90
11047;DHT22;5576;50.008;10.596;2022-08-01T17:51:28;25.80;99.90
11047;DHT22;5576;50.008;10.596;2022-08-01T17:53:54;25.80;99.90
11047;DHT22;5576;50.008;10.596;2022-08-01T17:56:19;25.70;99.90
11047;DHT22;5576;50.008;10.596;2022-08-01T17:58:45;26.50;99.90
11047;DHT22;5576;50.008;10.596;2022-08-01T18:01:11;25.40;99.90
11047;DHT22;5576;50.008;10.596;2022-08-01T18:03:37;25.40;99.90
11047;DHT22;5576;50.008;10.596;2022-08-01T18:06:03;25.30;99.90
11047;DHT22;5576;50.008;10.596;2022-08-01T18:08:29;25.20;99.90
11047;DHT22;5576;50.008;10.596;2022-08-01T18:10:55;25.20;99.90
11047;DHT22;5576;50.008;10.596;2022-08-01T18:13:21;25.20;99.90
11047;DHT22;5576;50.008;10.596;2022-08-01T18:15:47;25.10;99.90
11047;DHT22;5576;50.008;10.596;2022-08-01T18:18:12;25.10;99.90
11047;DHT22;5576;50.008;10.596;2022-08-01T18:20:41;25.00;99.90
11047;DHT22;5576;50.008;10.596;2022-08-01T18:25:33;24.90;99.90
11047;DHT22;5576;50.008;10.596;2022-08-01T18:27:59;24.90;99.90
11047;DHT22;5576;50.008;10.596;2022-08-01T18:30:25;24.80;99.90
11047;DHT22;5576;50.008;10.596;2022-08-01T18:32:51;23.70;99.90
11047;DHT22;5576;50.008;10.596;2022-08-01T18:35:17;24.70;99.90
11047;DHT22;5576;50.008;10.596;2022-08-01T18:37:42;28.30;99.90
11047;DHT22;5576;50.008;10.596;2022-08-01T18:40:09;24.50;99.90
11047;DHT22;5576;50.008;10.596;2022-08-01T18:42:34;24.50;99.90
11047;DHT22;5576;50.008;10.596;2022-08-01T18:45:00;24.50;99.90
11047;DHT22;5576;50.008;10.596;2022-08-01T18:47:26;24.50;99.90
11047;DHT22;5576;50.008;10.596;2022-08-01T18:49:52;25.50;99.90
11047;DHT22;5576;50.008;10.596;2022-08-01T18:52:18;24.40;99.90
11047;DHT22;5576;50.008;10.596;2022-08-01T18:54:43;21.40;99.90
11047;DHT22;5576;50.008;10.596;2022-08-01T18:57:09;24.30;99.90
11047;DHT22;5576;50.008;10.596;2022-08-01T18:59:35;24.10;99.90
11047;DHT22;5576;50.008;10.596;2022-08-01T19:02:00;24.10;99.90
11047;DHT22;5576;50.008;10.596;2022-08-01T19:04:26;24.00;99.90
11047;DHT22;5576;50.008;10.596;2022-08-01T19:06:52;23.90;99.90
11047;DHT22;5576;50.008;10.596;2022-08-01T19:09:18;23.80;99.90
11047;DHT22;5576;50.008;10.596;2022-08-01T19:11:44;25.80;99.90
11047;DHT22;5576;50.008;10.596;2022-08-01T19:14:09;23.80;99.90
11047;DHT22;5576;50.008;10.596;2022-08-01T19:16:35;23.60;99.90
11047;DHT22;5576;50.008;10.596;2022-08-01T19:19:03;23.50;99.90
11047;DHT22;5576;50.008;10.596;2022-08-01T19:21:29;23.40;99.90
11047;DHT22;5576;50.008;10.596;2022-08-01T19:23:55;23.30;99.90
11047;DHT22;5576;50.008;10.596;2022-08-01T19:31:48;23.10;99.90
11047;DHT22;5576;50.008;10.596;2022-08-01T19:34:15;23.00;99.90
11047;DHT22;5576;50.008;10.596;2022-08-01T19:36:44;22.80;99.90
11047;DHT22;5576;50.008;10.596;2022-08-01T19:39:13;22.60;99.90
11047;DHT22;5576;50.008;10.596;2022-08-01T19:41:42;22.50;99.90
11047;DHT22;5576;50.008;10.596;2022-08-01T19:44:11;22.50;99.90
11047;DHT22;5576;50.008;10.596;2022-08-01T19:46:39;22.40;99.90
11047;DHT22;5576;50.008;10.596;2022-08-01T19:49:06;21.80;99.90
11047;DHT22;5576;50.008;10.596;2022-08-01T19:51:37;24.30;99.90
11047;DHT22;5576;50.008;10.596;2022-08-01T19:54:05;21.40;99.90
11047;DHT22;5576;50.008;10.596;2022-08-01T19:56:38;22.20;99.90
11047;DHT22;5576;50.008;10.596;2022-08-01T19:59:05;22.20;99.90
11047;DHT22;5576;50.008;10.596;2022-08-01T20:01:34;22.20;99.90
11047;DHT22;5576;50.008;10.596;2022-08-01T20:04:02;22.10;99.90
11047;DHT22;5576;50.008;10.596;2022-08-01T20:06:31;22.00;99.90
11047;DHT22;5576;50.008;10.596;2022-08-01T20:08:59;22.00;99.90
11047;DHT22;5576;50.008;10.596;2022-08-01T20:11:26;21.90;99.90
11047;DHT22;5576;50.008;10.596;2022-08-01T20:13:53;21.90;99.90
11047;DHT22;5576;50.008;10.596;2022-08-01T20:16:20;21.80;99.90
11047;DHT22;5576;50.008;10.596;2022-08-01T20:18:45;21.60;99.90
11047;DHT22;5576;50.008;10.596;2022-08-01T20:21:12;21.50;99.90
11047;DHT22;5576;50.008;10.596;2022-08-01T20:23:39;21.50;99.90
11047;DHT22;5576;50.008;10.596;2022-08-01T20:26:06;21.30;99.90
11047;DHT22;5576;50.008;10.596;2022-08-01T20:28:36;25.30;99.90
11047;DHT22;5576;50.008;10.596;2022-08-01T20:31:06;21.20;99.90
11047;DHT22;5576;50.008;10.596;2022-08-01T20:33:33;21.50;99.90
11047;DHT22;5576;50.008;10.596;2022-08-01T20:36:00;21.00;99.90
11047;DHT22;5576;50.008;10.596;2022-08-01T20:38:28;20.90;99.90
11047;DHT22;5576;50.008;10.596;2022-08-01T20:40:55;21.10;99.90
11047;DHT22;5576;50.008;10.596;2022-08-01T20:43:23;21.10;99.90
11047;DHT22;5576;50.008;10.596;2022-08-01T20:45:51;18.10;99.90
11047;DHT22;5576;50.008;10.596;2022-08-01T20:48:17;24.10;99.90
11047;DHT22;5576;50.008;10.596;2022-08-01T20:50:45;21.00;99.90
11047;DHT22;5576;50.008;10.596;2022-08-01T20:53:32;21.60;99.90
11047;DHT22;5576;50.008;10.596;2022-08-01T21:01:19;21.60;99.90